Time;durP1;ratioP1;P1;durP2;ratioP2;P2;SDS_P1;SDS_P2;PMS_P1;PMS_P2;Temp;Humidity;BMP_temperature;BMP_pressure;BME280_temperature;BME280_humidity;BME280_pressure;Samples;Min_cycle;Max_cycle;Signal;HPM_P1;HPM_P2
2022/11/01 00:03:37;;;;;;;113.68;104.85;;;;;;;;;;10146877;28;20433;-69
2022/11/01 00:08:33;;;;;;;114.68;106.00;;;;;;;;;;10155148;28;20058;-69
2022/11/01 00:13:29;;;;;;;112.30;103.63;;;;;;;;;;10151700;28;20073;-69
2022/11/01 00:18:26;;;;;;;115.68;106.63;;;;;;;;;;10143587;28;20559;-69
2022/11/01 00:23:22;;;;;;;114.78;105.75;;;;;;;;;;10149044;28;20047;-68
2022/11/01 00:28:18;;;;;;;117.28;108.30;;;;;;;;;;10147522;28;20419;-69
2022/11/01 00:33:15;;;;;;;117.47;108.18;;;;;;;;;;10151274;28;20503;-69
2022/11/01 00:38:12;;;;;;;114.55;105.55;;;;;;;;;;10147278;28;20042;-69
2022/11/01 00:43:09;;;;;;;113.90;104.75;;;;;;;;;;10147487;28;20046;-69
2022/11/01 00:48:05;;;;;;;118.60;109.20;;;;;;;;;;10149882;28;20057;-69
2022/11/01 00:53:01;;;;;;;112.70;103.85;;;;;;;;;;10151758;28;20046;-69
2022/11/01 00:57:58;;;;;;;119.22;109.63;;;;;;;;;;10138908;28;20047;-69
2022/11/01 01:02:54;;;;;;;121.57;112.07;;;;;;;;;;10147115;28;20531;-69
2022/11/01 01:07:51;;;;;;;115.88;106.70;;;;;;;;;;10146144;28;20054;-69
2022/11/01 01:12:47;;;;;;;110.60;102.00;;;;;;;;;;10142617;28;20042;-68
2022/11/01 01:17:44;;;;;;;117.00;107.80;;;;;;;;;;10138808;28;20050;-69
2022/11/01 01:22:41;;;;;;;120.20;110.75;;;;;;;;;;10149037;28;20073;-68
2022/11/01 01:27:37;;;;;;;117.72;108.45;;;;;;;;;;10130743;28;20050;-69
2022/11/01 01:32:34;;;;;;;120.55;110.85;;;;;;;;;;10147518;28;20050;-68
2022/11/01 01:37:30;;;;;;;119.85;110.45;;;;;;;;;;10156254;28;20053;-68
2022/11/01 01:42:28;;;;;;;120.00;110.20;;;;;;;;;;10147275;28;20057;-69
2022/11/01 01:47:32;;;;;;;115.30;105.80;;;;;;;;;;10139703;28;20054;-68
2022/11/01 01:52:30;;;;;;;117.03;107.85;;;;;;;;;;10149227;28;20039;-69
2022/11/01 01:57:27;;;;;;;119.07;109.38;;;;;;;;;;10148528;28;20057;-68
2022/11/01 02:02:23;;;;;;;117.57;108.30;;;;;;;;;;10142555;28;20056;-69
2022/11/01 02:07:19;;;;;;;114.95;105.13;;;;;;;;;;10138462;28;20058;-68
2022/11/01 02:12:16;;;;;;;119.63;109.57;;;;;;;;;;10139844;28;20054;-68
2022/11/01 02:17:24;;;;;;;119.60;109.35;;;;;;;;;;10150443;28;20049;-69
2022/11/01 02:22:23;;;;;;;124.72;113.40;;;;;;;;;;10145417;28;20049;-69
2022/11/01 02:27:22;;;;;;;119.70;109.35;;;;;;;;;;10152000;28;20057;-68
2022/11/01 02:32:20;;;;;;;118.72;108.57;;;;;;;;;;10143696;28;20058;-69
2022/11/01 02:37:22;;;;;;;117.10;106.90;;;;;;;;;;10138457;28;20419;-68
2022/11/01 02:42:24;;;;;;;122.50;111.72;;;;;;;;;;10140640;28;20496;-68
2022/11/01 02:47:22;;;;;;;117.05;106.53;;;;;;;;;;10142098;28;20062;-69
2022/11/01 02:52:21;;;;;;;120.72;110.43;;;;;;;;;;10146604;28;20046;-69
2022/11/01 02:57:23;;;;;;;126.00;113.95;;;;;;;;;;10141856;28;20043;-69
2022/11/01 03:02:38;;;;;;;119.95;109.45;;;;;;;;;;10145561;28;20046;-68
2022/11/01 03:07:34;;;;;;;117.95;107.10;;;;;;;;;;10147515;28;20043;-69
2022/11/01 03:12:32;;;;;;;120.60;109.60;;;;;;;;;;10130925;28;20042;-68
2022/11/01 03:17:32;;;;;;;123.75;112.43;;;;;;;;;;10145110;28;20042;-68
2022/11/01 03:22:34;;;;;;;125.13;113.68;;;;;;;;;;10147584;28;20053;-68
2022/11/01 03:27:33;;;;;;;124.10;113.22;;;;;;;;;;10148917;28;20046;-68
2022/11/01 03:32:35;;;;;;;124.70;113.00;;;;;;;;;;10153921;28;20058;-68
2022/11/01 03:37:32;;;;;;;126.43;114.90;;;;;;;;;;10144645;28;20050;-68
2022/11/01 03:42:29;;;;;;;121.68;109.70;;;;;;;;;;10143654;28;20186;-68
2022/11/01 03:47:25;;;;;;;122.07;110.78;;;;;;;;;;10153852;28;20423;-69
2022/11/01 03:52:21;;;;;;;123.47;111.90;;;;;;;;;;10148420;28;20092;-69
2022/11/01 03:57:18;;;;;;;120.18;109.10;;;;;;;;;;10152972;28;20539;-68
2022/11/01 04:02:14;;;;;;;121.78;110.90;;;;;;;;;;10151689;28;20068;-68
2022/11/01 04:07:10;;;;;;;123.80;112.80;;;;;;;;;;10147697;28;20157;-69
2022/11/01 04:12:06;;;;;;;128.23;116.82;;;;;;;;;;10143419;28;20050;-69
2022/11/01 04:22:17;;;;;;;129.90;118.20;;;;;;;;;;10136165;28;20084;-69
2022/11/01 04:27:19;;;;;;;127.00;115.78;;;;;;;;;;10135531;28;20049;-69
2022/11/01 04:32:16;;;;;;;127.25;115.80;;;;;;;;;;10125698;28;20576;-69
2022/11/01 04:37:12;;;;;;;124.47;113.00;;;;;;;;;;10133168;28;20039;-69
2022/11/01 04:42:09;;;;;;;126.68;115.47;;;;;;;;;;10140223;28;20042;-69
2022/11/01 04:47:06;;;;;;;126.63;115.30;;;;;;;;;;10136823;28;20043;-69
2022/11/01 04:52:02;;;;;;;130.02;117.22;;;;;;;;;;10138181;28;20046;-69
2022/11/01 04:56:58;;;;;;;123.35;112.13;;;;;;;;;;10126558;28;20038;-68
2022/11/01 05:01:54;;;;;;;128.45;116.88;;;;;;;;;;10129254;28;20054;-68
2022/11/01 05:06:51;;;;;;;132.55;120.38;;;;;;;;;;10137875;28;20548;-68
2022/11/01 05:11:47;;;;;;;134.18;122.25;;;;;;;;;;10136676;28;20054;-67
2022/11/01 05:16:43;;;;;;;131.77;119.72;;;;;;;;;;10131185;28;20046;-68
2022/11/01 05:21:39;;;;;;;135.63;123.40;;;;;;;;;;10132453;28;20047;-70
2022/11/01 05:26:36;;;;;;;133.13;121.22;;;;;;;;;;10157280;28;20050;-69
2022/11/01 05:31:32;;;;;;;131.50;119.43;;;;;;;;;;10131615;28;20057;-68
2022/11/01 05:36:28;;;;;;;131.93;119.55;;;;;;;;;;10133908;28;20077;-69
2022/11/01 05:41:25;;;;;;;136.48;124.00;;;;;;;;;;10135895;28;20053;-69
2022/11/01 05:46:21;;;;;;;134.93;122.85;;;;;;;;;;10140474;28;20520;-69
2022/11/01 05:51:18;;;;;;;138.88;126.47;;;;;;;;;;10142089;28;20060;-68
2022/11/01 05:56:14;;;;;;;132.93;120.53;;;;;;;;;;10134122;28;20038;-69
2022/11/01 06:01:10;;;;;;;139.40;125.43;;;;;;;;;;10146622;28;20050;-69
2022/11/01 06:06:07;;;;;;;139.25;126.13;;;;;;;;;;10137015;28;20047;-69
2022/11/01 06:11:03;;;;;;;143.75;130.63;;;;;;;;;;10137837;28;20042;-69
2022/11/01 06:16:01;;;;;;;134.00;121.38;;;;;;;;;;10132348;28;20046;-73
2022/11/01 06:20:58;;;;;;;137.75;125.03;;;;;;;;;;10141046;28;20058;-74
2022/11/01 06:26:03;;;;;;;135.05;122.63;;;;;;;;;;10130264;28;20056;-75
2022/11/01 06:31:03;;;;;;;137.13;124.55;;;;;;;;;;10141060;28;20056;-75
2022/11/01 06:36:01;;;;;;;137.25;124.68;;;;;;;;;;10129190;28;20696;-75
2022/11/01 06:40:58;;;;;;;137.65;125.15;;;;;;;;;;10135348;28;20049;-74
2022/11/01 06:45:54;;;;;;;137.52;125.07;;;;;;;;;;10126575;28;20053;-74
2022/11/01 06:50:52;;;;;;;136.18;123.20;;;;;;;;;;10130438;28;20480;-72
2022/11/01 06:55:49;;;;;;;140.35;127.45;;;;;;;;;;10119437;28;20053;-72
2022/11/01 07:00:45;;;;;;;137.52;124.85;;;;;;;;;;10131364;28;20619;-72
2022/11/01 07:05:42;;;;;;;133.50;121.30;;;;;;;;;;10131767;28;20050;-71
2022/11/01 07:10:39;;;;;;;136.52;124.05;;;;;;;;;;10140052;28;20400;-71
2022/11/01 07:15:36;;;;;;;131.23;119.47;;;;;;;;;;10146086;28;20499;-72
2022/11/01 07:20:39;;;;;;;136.02;124.00;;;;;;;;;;10134316;28;20038;-71
2022/11/01 07:25:36;;;;;;;139.38;126.93;;;;;;;;;;10142058;28;20046;-71
2022/11/01 07:30:33;;;;;;;135.68;123.32;;;;;;;;;;10140393;28;20038;-71
2022/11/01 07:35:30;;;;;;;140.00;127.85;;;;;;;;;;10145153;28;20038;-71
2022/11/01 07:40:26;;;;;;;138.40;126.22;;;;;;;;;;10147230;28;20787;-72
2022/11/01 07:45:24;;;;;;;130.00;118.05;;;;;;;;;;10137511;28;20038;-71
2022/11/01 07:50:20;;;;;;;134.07;121.95;;;;;;;;;;10138486;28;20386;-72
2022/11/01 07:55:16;;;;;;;129.75;118.00;;;;;;;;;;10135671;28;20050;-71
2022/11/01 08:00:13;;;;;;;130.05;118.75;;;;;;;;;;10145016;28;20046;-71
2022/11/01 08:05:11;;;;;;;132.68;121.13;;;;;;;;;;10143611;28;20521;-71
2022/11/01 08:10:09;;;;;;;139.32;127.70;;;;;;;;;;10142484;28;20437;-72
2022/11/01 08:15:06;;;;;;;136.82;125.47;;;;;;;;;;10132581;28;20046;-72
2022/11/01 08:20:03;;;;;;;142.50;130.35;;;;;;;;;;10138129;28;20054;-72
2022/11/01 08:24:59;;;;;;;140.73;129.38;;;;;;;;;;10134201;28;20042;-72
2022/11/01 08:29:55;;;;;;;137.35;126.68;;;;;;;;;;10138396;28;20046;-72
2022/11/01 08:34:52;;;;;;;134.95;124.30;;;;;;;;;;10136749;28;20042;-72
2022/11/01 08:39:48;;;;;;;135.32;124.88;;;;;;;;;;10142704;28;20494;-72
2022/11/01 08:44:44;;;;;;;129.90;119.35;;;;;;;;;;10140516;28;20566;-72
2022/11/01 08:49:41;;;;;;;135.35;125.07;;;;;;;;;;10136819;28;20046;-73
2022/11/01 08:54:37;;;;;;;133.48;123.80;;;;;;;;;;10149279;28;20524;-73
2022/11/01 08:59:33;;;;;;;127.50;117.82;;;;;;;;;;10133573;28;20049;-73
2022/11/01 09:04:29;;;;;;;128.35;118.85;;;;;;;;;;10130437;28;20618;-74
2022/11/01 09:09:26;;;;;;;121.18;112.20;;;;;;;;;;10122697;28;20065;-73
2022/11/01 09:14:23;;;;;;;122.05;113.80;;;;;;;;;;10123769;28;20058;-74
2022/11/01 09:19:20;;;;;;;116.13;108.32;;;;;;;;;;10147613;28;20042;-73
2022/11/01 09:24:16;;;;;;;114.78;107.22;;;;;;;;;;10141195;28;20050;-73
2022/11/01 09:29:13;;;;;;;115.13;107.30;;;;;;;;;;10160143;28;20506;-73
2022/11/01 09:34:10;;;;;;;112.05;105.03;;;;;;;;;;10138785;28;20042;-74
2022/11/01 09:39:07;;;;;;;88.60;83.22;;;;;;;;;;10141702;28;20042;-73
2022/11/01 09:44:05;;;;;;;47.03;44.03;;;;;;;;;;10158301;28;20049;-74
2022/11/01 09:49:02;;;;;;;34.03;31.30;;;;;;;;;;10144953;28;20051;-73
2022/11/01 09:54:03;;;;;;;29.42;27.17;;;;;;;;;;10141350;28;20053;-74
2022/11/01 09:59:05;;;;;;;26.38;24.27;;;;;;;;;;10137506;28;20044;-73
2022/11/01 10:04:01;;;;;;;;;;;;;;;;;;10138345;28;20415;-74
2022/11/01 10:09:16;;;;;;;23.08;21.35;;;;;;;;;;10143131;28;19922;-73
2022/11/01 10:14:13;;;;;;;23.58;21.77;;;;;;;;;;10138765;28;20061;-74
2022/11/01 10:19:10;;;;;;;24.80;22.88;;;;;;;;;;10130816;28;20042;-74
2022/11/01 10:24:12;;;;;;;23.33;21.33;;;;;;;;;;10137926;28;20046;-74
2022/11/01 10:29:21;;;;;;;24.55;22.10;;;;;;;;;;10139364;28;20052;-74
2022/11/01 10:34:26;;;;;;;22.45;20.80;;;;;;;;;;10129094;28;20520;-73
2022/11/01 10:39:41;;;;;;;23.65;21.95;;;;;;;;;;10130440;28;20483;-72
2022/11/01 10:45:21;;;;;;;22.13;19.83;;;;;;;;;;10128719;28;20054;-73
2022/11/01 10:50:20;;;;;;;20.60;18.83;;;;;;;;;;10132852;28;20053;-72
2022/11/01 10:55:28;;;;;;;18.45;16.63;;;;;;;;;;10121088;28;20409;-73
2022/11/01 11:00:24;;;;;;;12.98;11.40;;;;;;;;;;10133081;28;20046;-72
2022/11/01 11:05:22;;;;;;;11.43;10.32;;;;;;;;;;10127531;28;20509;-72
2022/11/01 11:10:23;;;;;;;10.93;9.85;;;;;;;;;;10130241;28;20046;-72
2022/11/01 11:15:22;;;;;;;10.83;9.70;;;;;;;;;;10126356;28;20046;-72
2022/11/01 11:20:24;;;;;;;10.50;8.90;;;;;;;;;;10126270;28;20479;-72
2022/11/01 11:25:26;;;;;;;11.00;9.30;;;;;;;;;;10125162;28;20480;-73
2022/11/01 11:30:27;;;;;;;12.05;9.27;;;;;;;;;;10123359;28;20156;-72
2022/11/01 11:35:25;;;;;;;10.43;9.10;;;;;;;;;;10132922;28;20046;-73
2022/11/01 11:40:23;;;;;;;11.25;8.52;;;;;;;;;;10121587;28;20089;-72
2022/11/01 11:45:28;;;;;;;13.70;9.20;;;;;;;;;;10134836;28;20038;-72
2022/11/01 11:50:26;;;;;;;9.70;8.80;;;;;;;;;;10129605;28;20034;-73
2022/11/01 11:55:38;;;;;;;10.40;9.35;;;;;;;;;;10131227;28;20062;-73
2022/11/01 12:00:36;;;;;;;9.80;8.52;;;;;;;;;;10137210;28;20046;-73
2022/11/01 12:05:33;;;;;;;12.68;9.55;;;;;;;;;;10121351;28;20525;-73
2022/11/01 12:10:36;;;;;;;10.65;9.45;;;;;;;;;;10138560;28;20047;-72
2022/11/01 12:15:33;;;;;;;13.35;9.45;;;;;;;;;;10128802;28;20610;-72
2022/11/01 12:20:36;;;;;;;12.93;9.48;;;;;;;;;;10143135;28;20136;-73
2022/11/01 12:25:34;;;;;;;12.77;10.00;;;;;;;;;;10132358;28;20050;-73
2022/11/01 12:30:32;;;;;;;11.82;9.18;;;;;;;;;;10143975;28;21266;-73
2022/11/01 12:35:29;;;;;;;14.90;8.60;;;;;;;;;;10129279;28;20057;-73
2022/11/01 12:40:32;;;;;;;11.15;9.05;;;;;;;;;;10142995;28;20210;-73
2022/11/01 12:45:28;;;;;;;9.30;8.40;;;;;;;;;;10133063;28;20569;-74
2022/11/01 12:50:47;;;;;;;11.77;8.95;;;;;;;;;;10122785;28;20057;-74
2022/11/01 12:55:45;;;;;;;13.55;9.40;;;;;;;;;;10119987;28;20050;-73
2022/11/01 13:00:54;;;;;;;15.15;9.05;;;;;;;;;;10127744;28;20066;-73
2022/11/01 13:05:56;;;;;;;10.88;9.38;;;;;;;;;;10129846;28;20642;-72
2022/11/01 13:10:55;;;;;;;13.07;9.50;;;;;;;;;;10128919;28;20047;-73
2022/11/01 13:16:06;;;;;;;12.32;9.38;;;;;;;;;;10127386;28;20053;-73
2022/11/01 13:21:26;;;;;;;12.50;9.07;;;;;;;;;;10128309;28;20877;-73
2022/11/01 13:26:24;;;;;;;11.73;9.55;;;;;;;;;;10143213;28;20046;-73
2022/11/01 13:31:39;;;;;;;15.75;9.63;;;;;;;;;;10128977;28;20047;-73
2022/11/01 13:36:41;;;;;;;12.73;9.27;;;;;;;;;;10137764;28;20043;-72
2022/11/01 13:41:49;;;;;;;10.20;9.07;;;;;;;;;;10148135;28;20054;-73
2022/11/01 13:46:45;;;;;;;11.15;9.05;;;;;;;;;;10123847;28;20066;-73
2022/11/01 13:51:48;;;;;;;14.70;9.27;;;;;;;;;;10137282;28;20043;-73
2022/11/01 13:56:57;;;;;;;10.18;8.40;;;;;;;;;;10131104;28;20052;-72
2022/11/01 14:01:53;;;;;;;13.85;9.05;;;;;;;;;;10118736;28;20046;-73
2022/11/01 14:07:11;;;;;;;14.60;9.60;;;;;;;;;;10124990;28;20061;-73
2022/11/01 14:12:07;;;;;;;13.05;9.55;;;;;;;;;;10123033;28;20046;-73
2022/11/01 14:17:15;;;;;;;15.25;10.52;;;;;;;;;;10122128;28;20046;-71
2022/11/01 14:22:21;;;;;;;17.25;9.52;;;;;;;;;;10116537;28;20062;-72
2022/11/01 14:27:19;;;;;;;10.40;9.15;;;;;;;;;;10119852;28;20042;-71
2022/11/01 14:32:16;;;;;;;13.90;10.50;;;;;;;;;;10121620;28;20047;-74
2022/11/01 14:37:18;;;;;;;13.35;9.00;;;;;;;;;;10122328;28;20046;-73
2022/11/01 14:42:18;;;;;;;11.50;9.40;;;;;;;;;;10119904;28;20051;-73
2022/11/01 14:47:35;;;;;;;14.43;10.57;;;;;;;;;;10127001;28;20042;-73
2022/11/01 14:52:55;;;;;;;12.55;10.32;;;;;;;;;;10121861;28;20047;-73
2022/11/01 14:58:10;;;;;;;13.73;9.57;;;;;;;;;;10115866;28;20134;-73
2022/11/01 15:03:07;;;;;;;16.75;10.77;;;;;;;;;;10122360;28;20061;-73
2022/11/01 15:08:18;;;;;;;14.18;10.15;;;;;;;;;;10135048;28;20144;-74
2022/11/01 15:13:16;;;;;;;12.60;9.63;;;;;;;;;;10125784;28;20055;-73
2022/11/01 15:18:13;;;;;;;12.95;9.75;;;;;;;;;;10138682;28;20042;-74
2022/11/01 15:23:14;;;;;;;13.07;10.45;;;;;;;;;;10134651;28;20051;-74
2022/11/01 15:28:18;;;;;;;11.60;10.02;;;;;;;;;;10157319;28;20174;-73
2022/11/01 15:33:19;;;;;;;14.90;10.05;;;;;;;;;;10114130;28;20054;-74
2022/11/01 15:38:17;;;;;;;24.10;10.68;;;;;;;;;;10137650;28;20786;-74
2022/11/01 15:43:17;;;;;;;12.60;9.60;;;;;;;;;;10130199;28;20073;-74
2022/11/01 15:48:17;;;;;;;11.77;10.57;;;;;;;;;;10142432;28;20062;-74
2022/11/01 15:53:17;;;;;;;12.18;9.77;;;;;;;;;;10129852;28;20045;-73
2022/11/01 15:58:17;;;;;;;17.35;10.35;;;;;;;;;;10127242;28;20054;-73
2022/11/01 16:03:15;;;;;;;10.15;9.25;;;;;;;;;;10141473;28;20057;-73
2022/11/01 16:08:24;;;;;;;13.57;11.10;;;;;;;;;;10130868;28;20046;-73
2022/11/01 16:13:20;;;;;;;14.23;10.48;;;;;;;;;;10138656;28;20044;-73
2022/11/01 16:18:22;;;;;;;14.15;10.55;;;;;;;;;;10159487;28;20058;-73
2022/11/01 16:23:27;;;;;;;17.63;11.07;;;;;;;;;;10133507;28;20046;-73
2022/11/01 16:28:23;;;;;;;13.55;10.98;;;;;;;;;;10139780;28;20061;-73
2022/11/01 16:33:21;;;;;;;17.50;10.70;;;;;;;;;;10141243;28;20042;-73
2022/11/01 16:38:38;;;;;;;17.00;11.15;;;;;;;;;;10142153;28;20046;-73
2022/11/01 16:43:34;;;;;;;18.70;10.90;;;;;;;;;;10136651;28;20046;-74
2022/11/01 16:48:46;;;;;;;20.45;10.82;;;;;;;;;;10146095;28;20050;-73
2022/11/01 16:53:42;;;;;;;15.00;11.60;;;;;;;;;;10143956;28;20050;-73
2022/11/01 16:58:39;;;;;;;21.15;11.63;;;;;;;;;;10154193;28;20050;-73
2022/11/01 17:03:35;;;;;;;16.80;11.02;;;;;;;;;;10140308;28;20059;-72
2022/11/01 17:08:32;;;;;;;14.02;9.75;;;;;;;;;;10134497;28;20049;-73
2022/11/01 17:13:28;;;;;;;12.45;10.98;;;;;;;;;;10121952;28;20133;-73
2022/11/01 17:18:27;;;;;;;17.33;11.40;;;;;;;;;;10116058;28;20046;-73
2022/11/01 17:23:25;;;;;;;16.50;10.30;;;;;;;;;;10124080;28;20437;-73
2022/11/01 17:28:24;;;;;;;19.83;11.25;;;;;;;;;;10143382;28;20049;-73
2022/11/01 17:33:21;;;;;;;15.48;10.85;;;;;;;;;;10129527;28;20042;-73
2022/11/01 17:38:27;;;;;;;17.95;11.60;;;;;;;;;;10119846;28;20889;-73
2022/11/01 17:43:27;;;;;;;16.38;11.30;;;;;;;;;;10114791;28;20153;-71
2022/11/01 17:48:23;;;;;;;16.65;11.60;;;;;;;;;;10116583;28;20050;-71
2022/11/01 17:53:19;;;;;;;18.27;11.07;;;;;;;;;;10133649;28;20058;-71
2022/11/01 17:58:15;;;;;;;14.15;10.65;;;;;;;;;;10113833;28;21843;-71
2022/11/01 18:03:13;;;;;;;21.17;11.00;;;;;;;;;;10122487;28;20042;-72
2022/11/01 18:08:15;;;;;;;15.77;11.80;;;;;;;;;;10122985;28;20045;-72
2022/11/01 18:13:11;;;;;;;20.13;11.98;;;;;;;;;;10118389;28;20047;-71
2022/11/01 18:18:13;;;;;;;16.33;12.15;;;;;;;;;;10125974;28;20035;-71
2022/11/01 18:23:11;;;;;;;16.52;12.38;;;;;;;;;;10124929;28;20053;-71
2022/11/01 18:28:14;;;;;;;17.42;12.15;;;;;;;;;;10132276;28;20053;-72
2022/11/01 18:33:20;;;;;;;16.40;12.75;;;;;;;;;;10129725;28;20042;-72
2022/11/01 18:38:16;;;;;;;17.20;13.50;;;;;;;;;;10121002;28;20129;-70
2022/11/01 18:43:19;;;;;;;18.50;12.55;;;;;;;;;;10123292;28;20061;-71
2022/11/01 18:48:18;;;;;;;16.88;12.70;;;;;;;;;;10121338;28;20102;-71
2022/11/01 18:53:16;;;;;;;14.60;11.98;;;;;;;;;;10123249;28;20046;-71
2022/11/01 18:58:14;;;;;;;22.65;12.57;;;;;;;;;;10130221;28;20048;-72
2022/11/01 19:03:12;;;;;;;14.93;11.27;;;;;;;;;;10127154;28;20125;-72
2022/11/01 19:08:17;;;;;;;20.83;13.00;;;;;;;;;;10124138;28;20046;-72
2022/11/01 19:13:19;;;;;;;14.30;12.82;;;;;;;;;;10135805;28;20054;-72
2022/11/01 19:18:17;;;;;;;15.75;13.07;;;;;;;;;;10143111;28;20042;-72
2022/11/01 19:23:17;;;;;;;16.38;12.10;;;;;;;;;;10130606;28;20042;-72
2022/11/01 19:28:24;;;;;;;17.38;13.60;;;;;;;;;;10140401;28;20823;-72
2022/11/01 19:33:28;;;;;;;17.23;13.05;;;;;;;;;;10130343;28;20054;-71
2022/11/01 19:38:24;;;;;;;17.80;13.73;;;;;;;;;;10130722;28;20042;-72
2022/11/01 19:43:22;;;;;;;15.02;12.20;;;;;;;;;;10129994;28;20050;-72
2022/11/01 19:48:21;;;;;;;16.92;12.88;;;;;;;;;;10130964;28;20052;-72
2022/11/01 19:53:28;;;;;;;19.23;12.95;;;;;;;;;;10131879;28;20039;-72
2022/11/01 19:58:34;;;;;;;17.48;11.20;;;;;;;;;;10137489;28;20050;-71
2022/11/01 20:03:39;;;;;;;14.18;10.48;;;;;;;;;;10127877;28;20081;-72
2022/11/01 20:08:35;;;;;;;10.50;9.32;;;;;;;;;;10129305;28;20046;-72
2022/11/01 20:13:31;;;;;;;10.27;8.80;;;;;;;;;;10134666;28;20043;-72
2022/11/01 20:18:28;;;;;;;13.30;8.82;;;;;;;;;;10128694;28;20043;-71
2022/11/01 20:23:24;;;;;;;14.85;8.30;;;;;;;;;;10140518;28;20050;-71
2022/11/01 20:28:22;;;;;;;11.98;8.25;;;;;;;;;;10141731;28;20410;-72
2022/11/01 20:33:19;;;;;;;11.23;7.90;;;;;;;;;;10132923;28;20046;-72
2022/11/01 20:38:15;;;;;;;13.15;7.90;;;;;;;;;;10134778;28;20119;-72
2022/11/01 20:43:11;;;;;;;12.82;9.18;;;;;;;;;;10128025;28;20043;-72
2022/11/01 20:48:08;;;;;;;17.55;8.70;;;;;;;;;;10137433;28;20775;-71
2022/11/01 20:53:07;;;;;;;10.02;7.85;;;;;;;;;;10128702;28;20392;-71
2022/11/01 20:58:03;;;;;;;9.40;7.90;;;;;;;;;;10136811;28;20045;-71
2022/11/01 21:03:10;;;;;;;9.40;8.27;;;;;;;;;;10120062;28;20675;-67
2022/11/01 21:08:10;;;;;;;11.93;9.60;;;;;;;;;;10134044;28;20053;-68
2022/11/01 21:13:26;;;;;;;11.38;8.85;;;;;;;;;;10116363;28;20082;-68
2022/11/01 21:18:26;;;;;;;23.50;9.10;;;;;;;;;;10121671;28;20406;-69
2022/11/01 21:23:34;;;;;;;10.70;8.15;;;;;;;;;;10125055;28;20054;-68
2022/11/01 21:28:41;;;;;;;11.50;8.13;;;;;;;;;;10133900;28;20046;-69
2022/11/01 21:33:41;;;;;;;9.60;7.85;;;;;;;;;;10124132;28;20536;-69
2022/11/01 21:38:39;;;;;;;12.32;8.43;;;;;;;;;;10125497;28;20054;-70
2022/11/01 21:43:36;;;;;;;10.70;8.45;;;;;;;;;;10121366;28;20050;-68
2022/11/01 21:48:32;;;;;;;9.77;8.55;;;;;;;;;;10116118;28;20050;-68
2022/11/01 21:53:28;;;;;;;11.38;8.88;;;;;;;;;;10117959;28;20061;-68
2022/11/01 21:58:24;;;;;;;10.07;8.23;;;;;;;;;;10151688;28;20038;-67
2022/11/01 22:03:20;;;;;;;11.27;8.32;;;;;;;;;;10132314;28;20054;-68
2022/11/01 22:08:17;;;;;;;11.40;8.05;;;;;;;;;;10132111;28;20045;-67
2022/11/01 22:13:13;;;;;;;9.40;6.88;;;;;;;;;;10136550;28;20043;-68
2022/11/01 22:18:09;;;;;;;11.07;7.47;;;;;;;;;;10136007;28;20069;-67
2022/11/01 22:23:05;;;;;;;9.02;7.50;;;;;;;;;;10132127;28;20046;-67
2022/11/01 22:28:04;;;;;;;11.93;8.00;;;;;;;;;;10132028;28;20057;-72
2022/11/01 22:33:02;;;;;;;9.32;7.95;;;;;;;;;;10152145;28;20047;-68
2022/11/01 22:37:58;;;;;;;12.38;8.38;;;;;;;;;;10135029;28;20042;-69
2022/11/01 22:42:56;;;;;;;9.18;7.30;;;;;;;;;;10137732;28;20042;-71
2022/11/01 22:47:52;;;;;;;8.73;7.28;;;;;;;;;;10151750;28;20042;-69
2022/11/01 22:52:49;;;;;;;12.90;7.78;;;;;;;;;;10127053;28;20045;-70
2022/11/01 22:57:50;;;;;;;13.60;7.38;;;;;;;;;;10134466;28;20391;-70
2022/11/01 23:02:47;;;;;;;9.20;7.18;;;;;;;;;;10131079;28;20039;-71
2022/11/01 23:07:45;;;;;;;12.23;7.75;;;;;;;;;;10135794;28;20066;-71
2022/11/01 23:18:01;;;;;;;10.50;7.10;;;;;;;;;;10133245;28;20499;-70
2022/11/01 23:22:57;;;;;;;13.38;7.43;;;;;;;;;;10130681;28;20047;-69
2022/11/01 23:27:54;;;;;;;11.00;7.80;;;;;;;;;;10147648;28;20138;-69
2022/11/01 23:32:50;;;;;;;14.60;7.32;;;;;;;;;;10132774;28;20134;-69
2022/11/01 23:37:48;;;;;;;7.95;7.00;;;;;;;;;;10126244;28;20062;-71
2022/11/01 23:42:45;;;;;;;12.27;7.30;;;;;;;;;;10135487;28;20080;-71
2022/11/01 23:47:41;;;;;;;10.93;8.02;;;;;;;;;;10143688;28;20047;-70
2022/11/01 23:52:45;;;;;;;16.45;7.40;;;;;;;;;;10132378;28;20053;-69
2022/11/01 23:57:41;;;;;;;11.93;7.18;;;;;;;;;;10134617;28;20046;-71
